createdAt,value
2019-03-21T00:00:33.003Z,12.50
2019-03-21T00:03:02.860Z,13.57
2019-03-21T00:05:34.962Z,13.47
2019-03-21T00:08:05.903Z,18.10
2019-03-21T00:11:12.051Z,12.60
2019-03-21T00:13:42.142Z,9.97
2019-03-21T00:16:13.591Z,10.50
2019-03-21T00:18:43.555Z,9.70
2019-03-21T00:21:13.411Z,11.40
2019-03-21T00:23:43.271Z,10.70
2019-03-21T00:26:13.157Z,19.40
2019-03-21T00:28:43.022Z,13.40
2019-03-21T00:31:12.799Z,19.33
2019-03-21T00:33:42.607Z,15.67
2019-03-21T00:36:12.459Z,17.00
2019-03-21T00:38:42.310Z,14.23
2019-03-21T00:41:12.207Z,12.67
2019-03-21T00:43:43.558Z,11.53
2019-03-21T00:46:13.278Z,11.07
2019-03-21T00:48:43.045Z,11.57
2019-03-21T00:51:12.747Z,11.70
2019-03-21T00:53:42.642Z,12.07
2019-03-21T00:56:12.501Z,13.80
2019-03-21T00:58:42.351Z,13.30
2019-03-21T01:01:12.637Z,13.17
2019-03-21T01:03:42.422Z,11.93
2019-03-21T01:06:12.238Z,12.30
2019-03-21T01:08:42.004Z,13.53
2019-03-21T01:11:11.790Z,13.07
2019-03-21T01:13:42.188Z,12.97
2019-03-21T01:16:11.951Z,11.57
2019-03-21T01:18:41.774Z,12.80
2019-03-21T01:21:11.534Z,12.07
2019-03-21T01:23:41.319Z,12.53
2019-03-21T01:26:11.126Z,12.70
2019-03-21T01:28:40.978Z,13.57
2019-03-21T01:31:10.874Z,13.30
2019-03-21T01:33:40.664Z,13.40
2019-03-21T01:36:10.662Z,13.77
2019-03-21T01:38:40.442Z,13.50
2019-03-21T01:41:10.315Z,13.70
2019-03-21T01:43:40.137Z,11.73
2019-03-21T01:46:11.898Z,14.50
2019-03-21T01:48:41.742Z,12.70
2019-03-21T01:51:11.611Z,13.87
2019-03-21T01:53:41.381Z,12.73
2019-03-21T01:56:11.148Z,13.53
2019-03-21T01:58:41.058Z,13.50
2019-03-21T02:01:10.930Z,13.87
2019-03-21T02:03:40.716Z,14.13
2019-03-21T02:06:10.615Z,14.43
2019-03-21T02:08:40.459Z,14.23
2019-03-21T02:11:10.254Z,12.33
2019-03-21T02:13:40.042Z,14.27
2019-03-21T02:16:09.894Z,14.80
2019-03-21T02:18:39.748Z,13.70
2019-03-21T02:21:09.588Z,14.00
2019-03-21T02:23:39.480Z,14.07
2019-03-21T02:26:09.317Z,12.63
2019-03-21T02:28:39.326Z,12.93
2019-03-21T02:31:09.295Z,13.60
2019-03-21T02:33:39.525Z,12.57
2019-03-21T02:36:10.320Z,13.33
2019-03-21T02:38:40.162Z,13.80
2019-03-21T02:41:10.506Z,13.73
2019-03-21T02:43:40.553Z,12.70
2019-03-21T02:46:10.359Z,12.87
2019-03-21T02:48:40.163Z,14.10
2019-03-21T02:51:09.943Z,14.20
2019-03-21T02:53:39.786Z,13.93
2019-03-21T02:56:11.279Z,13.93
2019-03-21T02:58:41.046Z,14.77
2019-03-21T03:01:10.895Z,15.27
2019-03-21T03:03:40.766Z,13.57
2019-03-21T03:06:10.664Z,14.40
2019-03-21T03:08:40.525Z,14.87
2019-03-21T03:11:10.994Z,13.70
2019-03-21T03:13:41.403Z,13.37
2019-03-21T03:16:11.321Z,11.40
2019-03-21T03:18:41.418Z,14.57
2019-03-21T03:21:11.280Z,13.37
2019-03-21T03:23:41.055Z,14.13
2019-03-21T03:26:10.834Z,14.30
2019-03-21T03:28:40.946Z,13.37
2019-03-21T03:31:10.815Z,13.27
2019-03-21T03:33:40.594Z,13.27
2019-03-21T03:36:10.430Z,14.13
2019-03-21T03:38:40.187Z,13.90
2019-03-21T03:41:10.456Z,14.20
2019-03-21T03:43:40.249Z,12.33
2019-03-21T03:46:10.104Z,13.00
2019-03-21T03:48:40.037Z,14.07
2019-03-21T03:51:09.882Z,13.73
2019-03-21T03:53:42.458Z,13.60
2019-03-21T03:56:11.571Z,14.03
2019-03-21T03:58:42.895Z,13.03
2019-03-21T04:01:12.684Z,12.40
2019-03-21T04:03:42.498Z,13.40
2019-03-21T04:06:12.363Z,12.80
2019-03-21T04:08:42.283Z,13.27
2019-03-21T04:11:12.604Z,13.47
2019-03-21T04:13:42.709Z,12.53
2019-03-21T04:16:12.520Z,14.47
2019-03-21T04:18:43.155Z,13.13
2019-03-21T04:21:13.048Z,13.13
2019-03-21T04:23:42.837Z,12.70
2019-03-21T04:26:25.225Z,13.00
2019-03-21T04:28:55.022Z,13.40
2019-03-21T04:31:24.914Z,12.53
2019-03-21T04:33:56.395Z,11.10
2019-03-21T04:36:26.288Z,12.83
2019-03-21T04:38:56.136Z,12.67
2019-03-21T04:41:26.061Z,14.20
2019-03-21T04:43:55.969Z,12.57
2019-03-21T04:46:25.747Z,13.40
2019-03-21T04:48:55.542Z,12.20
2019-03-21T04:51:25.305Z,12.53
2019-03-21T04:53:55.046Z,12.77
2019-03-21T04:56:25.077Z,12.97
2019-03-21T04:58:54.941Z,12.60
2019-03-21T05:01:24.860Z,13.20
2019-03-21T05:03:54.715Z,14.17
2019-03-21T05:06:24.636Z,12.80
2019-03-21T05:08:54.658Z,13.10
2019-03-21T05:11:24.447Z,12.27
2019-03-21T05:13:54.216Z,12.43
2019-03-21T05:16:24.035Z,12.10
2019-03-21T05:18:54.765Z,13.30
2019-03-21T05:21:24.755Z,13.43
2019-03-21T05:23:54.549Z,13.33
2019-03-21T05:26:25.097Z,12.83
2019-03-21T05:28:54.932Z,13.27
2019-03-21T05:31:28.637Z,13.83
2019-03-21T05:33:58.517Z,13.90
2019-03-21T05:36:28.392Z,13.30
2019-03-21T05:38:58.169Z,14.17
2019-03-21T05:41:28.039Z,13.10
2019-03-21T05:44:01.740Z,13.63
2019-03-21T05:46:32.086Z,13.37
2019-03-21T05:49:01.966Z,13.13
2019-03-21T05:51:31.871Z,13.87
2019-03-21T05:54:01.641Z,13.60
2019-03-21T05:56:31.428Z,15.33
2019-03-21T05:59:01.195Z,18.97
2019-03-21T06:01:31.064Z,17.67
2019-03-21T06:04:00.906Z,15.27
2019-03-21T06:06:45.109Z,18.83
2019-03-21T06:09:17.297Z,14.57
2019-03-21T06:11:50.496Z,18.03
2019-03-21T06:14:20.346Z,16.33
2019-03-21T06:16:50.128Z,14.10
2019-03-21T06:19:37.755Z,14.03
2019-03-21T06:22:41.198Z,13.90
2019-03-21T06:26:03.422Z,14.77
2019-03-21T06:28:33.297Z,15.90
2019-03-21T06:31:03.184Z,14.47
2019-03-21T06:33:33.031Z,14.90
2019-03-21T06:36:02.809Z,15.17
2019-03-21T06:38:32.728Z,17.37
2019-03-21T06:41:02.527Z,17.20
2019-03-21T06:43:32.302Z,18.77
2019-03-21T06:46:02.220Z,19.53
2019-03-21T06:48:32.069Z,20.93
2019-03-21T06:51:01.938Z,18.37
2019-03-21T06:53:31.757Z,19.40
2019-03-21T06:56:01.604Z,19.13
2019-03-21T06:58:31.490Z,15.10
2019-03-21T07:01:01.369Z,16.47
2019-03-21T07:03:31.137Z,14.57
2019-03-21T07:06:00.919Z,20.43
2019-03-21T07:08:30.770Z,18.33
2019-03-21T07:11:00.578Z,16.33
2019-03-21T07:13:30.349Z,16.93
2019-03-21T07:16:00.206Z,18.87
2019-03-21T07:18:30.350Z,19.60
2019-03-21T07:21:01.276Z,20.60
2019-03-21T07:23:31.289Z,20.93
2019-03-21T07:26:01.445Z,17.97
2019-03-21T07:28:31.266Z,17.53
2019-03-21T07:31:01.038Z,20.07
2019-03-21T07:33:30.906Z,25.13
2019-03-21T07:36:00.719Z,18.03
2019-03-21T07:38:30.561Z,22.13
2019-03-21T07:41:00.410Z,20.00
2019-03-21T07:43:30.303Z,20.90
2019-03-21T07:46:00.175Z,20.33
2019-03-21T07:48:30.459Z,18.57
2019-03-21T07:51:00.248Z,16.50
2019-03-21T07:53:30.019Z,14.90
2019-03-21T07:55:59.927Z,17.70
2019-03-21T07:58:29.792Z,17.17
2019-03-21T08:01:00.131Z,20.37
2019-03-21T08:03:30.026Z,16.77
2019-03-21T08:06:00.180Z,20.37
2019-03-21T08:08:30.033Z,17.67
2019-03-21T08:10:59.924Z,17.30
2019-03-21T08:13:29.771Z,19.87
2019-03-21T08:15:59.644Z,38.53
2019-03-21T08:18:29.433Z,22.33
2019-03-21T08:21:00.172Z,33.00
2019-03-21T08:23:30.159Z,23.67
2019-03-21T08:26:00.022Z,18.73
2019-03-21T08:28:29.839Z,19.93
2019-03-21T08:31:30.751Z,19.47
2019-03-21T08:34:00.659Z,18.83
2019-03-21T08:36:30.566Z,18.47
2019-03-21T08:39:01.016Z,16.63
2019-03-21T08:41:30.767Z,17.37
2019-03-21T08:44:00.618Z,17.83
2019-03-21T08:46:30.498Z,20.53
2019-03-21T08:49:00.349Z,23.10
2019-03-21T08:51:30.124Z,36.33
2019-03-21T08:54:00.322Z,64.10
2019-03-21T08:56:30.167Z,29.80
2019-03-21T08:58:59.948Z,26.07
2019-03-21T09:01:29.849Z,27.40
2019-03-21T09:03:59.632Z,24.70
2019-03-21T09:06:29.861Z,32.50
2019-03-21T09:08:59.643Z,36.87
2019-03-21T09:11:31.323Z,22.93
2019-03-21T09:14:01.139Z,24.50
2019-03-21T09:16:32.266Z,35.97
2019-03-21T09:19:02.046Z,34.67
2019-03-21T09:21:31.905Z,24.03
2019-03-21T09:24:01.749Z,20.20
2019-03-21T09:26:31.599Z,28.63
2019-03-21T09:29:01.751Z,25.73
2019-03-21T09:31:31.884Z,29.97
2019-03-21T09:34:01.657Z,22.67
2019-03-21T09:36:31.564Z,37.30
2019-03-21T09:39:01.421Z,22.47
2019-03-21T09:41:31.501Z,25.77
2019-03-21T09:44:01.896Z,32.60
2019-03-21T09:46:31.623Z,51.70
2019-03-21T09:49:01.470Z,30.80
2019-03-21T09:51:31.371Z,18.97
2019-03-21T09:54:09.519Z,25.53
2019-03-21T09:56:32.739Z,28.40
2019-03-21T09:59:02.631Z,27.17
2019-03-21T10:01:32.407Z,23.63
2019-03-21T10:04:02.976Z,27.97
2019-03-21T10:06:32.836Z,27.53
2019-03-21T10:09:02.756Z,25.53
2019-03-21T10:11:32.614Z,23.03
2019-03-21T10:14:02.486Z,24.97
2019-03-21T10:16:32.266Z,22.23
2019-03-21T10:19:02.038Z,29.90
2019-03-21T10:21:42.769Z,24.53
2019-03-21T10:24:03.389Z,29.03
2019-03-21T10:26:33.258Z,40.57
2019-03-21T10:29:03.038Z,48.73
2019-03-21T10:31:32.803Z,33.00
2019-03-21T10:34:03.004Z,27.07
2019-03-21T10:36:32.812Z,43.43
2019-03-21T10:39:02.942Z,36.03
2019-03-21T10:41:32.725Z,26.40
2019-03-21T10:44:02.563Z,28.47
2019-03-21T10:46:32.428Z,47.37
2019-03-21T10:49:02.200Z,17.43
2019-03-21T10:51:32.096Z,18.30
2019-03-21T10:54:01.875Z,16.57
2019-03-21T10:56:31.919Z,21.60
2019-03-21T10:59:01.871Z,32.17
2019-03-21T11:01:31.733Z,35.57
2019-03-21T11:04:01.517Z,24.67
2019-03-21T11:06:31.387Z,27.00
2019-03-21T11:09:01.239Z,31.67
2019-03-21T11:11:31.025Z,16.43
2019-03-21T11:14:00.912Z,23.73
2019-03-21T11:16:31.598Z,37.87
2019-03-21T11:19:01.363Z,66.00
2019-03-21T11:21:31.277Z,31.67
2019-03-21T11:24:01.478Z,56.93
2019-03-21T11:26:31.381Z,21.57
2019-03-21T11:29:01.263Z,62.90
2019-03-21T11:31:31.171Z,25.43
2019-03-21T11:34:00.950Z,23.30
2019-03-21T11:36:38.189Z,35.77
2019-03-21T11:39:02.331Z,18.87
2019-03-21T11:41:32.111Z,24.93
2019-03-21T11:44:01.975Z,19.43
2019-03-21T11:46:31.973Z,31.57
2019-03-21T11:49:01.965Z,19.90
2019-03-21T11:51:32.352Z,22.00
2019-03-21T11:54:02.236Z,27.50
2019-03-21T11:56:32.035Z,29.60
2019-03-21T11:59:01.843Z,23.70
2019-03-21T12:01:31.676Z,17.00
2019-03-21T12:04:01.444Z,26.90
2019-03-21T12:06:31.338Z,18.27
2019-03-21T12:09:03.325Z,20.30
2019-03-21T12:11:33.095Z,17.97
2019-03-21T12:14:02.888Z,18.27
2019-03-21T12:16:32.661Z,21.63
2019-03-21T12:19:02.460Z,20.27
2019-03-21T12:21:32.315Z,18.43
2019-03-21T12:24:02.134Z,18.07
2019-03-21T12:26:32.035Z,21.97
2019-03-21T12:29:01.902Z,30.97
2019-03-21T12:31:31.852Z,22.97
2019-03-21T12:34:01.634Z,23.10
2019-03-21T12:36:31.519Z,21.87
2019-03-21T12:39:01.383Z,19.37
2019-03-21T12:41:31.237Z,18.53
2019-03-21T12:44:01.039Z,20.37
2019-03-21T12:46:31.343Z,24.37
2019-03-21T12:49:01.119Z,23.27
2019-03-21T12:51:30.972Z,27.00
2019-03-21T12:54:00.797Z,31.43
2019-03-21T12:56:30.644Z,37.97
2019-03-21T12:59:00.962Z,25.03
2019-03-21T13:01:30.840Z,45.73
2019-03-21T13:04:00.681Z,27.73
2019-03-21T13:06:30.588Z,23.83
2019-03-21T13:09:00.482Z,22.70
2019-03-21T13:11:31.114Z,25.50
2019-03-21T13:14:00.893Z,23.30
2019-03-21T13:16:30.672Z,25.70
2019-03-21T13:19:03.566Z,35.20
2019-03-21T13:21:33.339Z,28.43
2019-03-21T13:24:03.239Z,27.17
2019-03-21T13:26:33.079Z,23.80
2019-03-21T13:29:03.494Z,22.70
2019-03-21T13:31:33.396Z,26.37
2019-03-21T13:34:03.174Z,43.73
2019-03-21T13:36:32.977Z,48.47
2019-03-21T13:39:02.956Z,23.53
2019-03-21T13:41:32.888Z,23.43
2019-03-21T13:44:02.703Z,42.47
2019-03-21T13:46:32.624Z,26.33
2019-03-21T13:49:02.481Z,24.73
2019-03-21T13:51:32.330Z,24.63
2019-03-21T13:54:02.283Z,27.37
2019-03-21T13:56:38.001Z,33.60
2019-03-21T13:59:04.992Z,36.73
2019-03-21T14:01:34.849Z,37.93
2019-03-21T14:04:04.716Z,38.87
2019-03-21T14:06:34.657Z,40.60
2019-03-21T14:09:07.003Z,39.00
2019-03-21T14:11:37.047Z,40.57
2019-03-21T14:14:07.082Z,44.53
2019-03-21T14:16:36.875Z,40.20
2019-03-21T14:19:06.766Z,35.70
2019-03-21T14:21:36.652Z,30.80
2019-03-21T14:24:07.053Z,34.23
2019-03-21T14:26:37.148Z,36.30
2019-03-21T14:29:12.561Z,24.77
2019-03-21T14:31:38.526Z,25.90
2019-03-21T14:34:08.318Z,24.80
2019-03-21T14:36:38.123Z,33.10
2019-03-21T14:39:08.372Z,27.57
2019-03-21T14:41:38.248Z,34.70
2019-03-21T14:44:08.136Z,47.30
2019-03-21T14:46:38.594Z,44.93
2019-03-21T14:49:08.445Z,40.03
2019-03-21T14:51:38.340Z,35.00
2019-03-21T14:54:10.271Z,33.43
2019-03-21T14:56:40.184Z,37.63
2019-03-21T14:59:10.004Z,37.77
2019-03-21T15:01:40.859Z,31.40
2019-03-21T15:04:10.906Z,40.13
2019-03-21T15:06:40.725Z,36.77
2019-03-21T15:09:10.594Z,42.50
2019-03-21T15:11:40.491Z,41.63
2019-03-21T15:14:10.559Z,41.13
2019-03-21T15:16:40.458Z,38.87
2019-03-21T15:19:10.738Z,38.67
2019-03-21T15:21:40.789Z,27.50
2019-03-21T15:24:29.455Z,32.63
2019-03-21T15:26:59.362Z,56.20
2019-03-21T15:29:29.134Z,56.23
2019-03-21T15:31:59.750Z,45.63
2019-03-21T15:34:29.599Z,46.80
2019-03-21T15:36:59.362Z,37.03
2019-03-21T15:39:29.244Z,54.30
2019-03-21T15:41:59.172Z,67.50
2019-03-21T15:44:29.005Z,41.93
2019-03-21T15:46:58.895Z,30.83
2019-03-21T15:49:28.738Z,50.83
2019-03-21T15:51:58.715Z,51.40
2019-03-21T15:54:28.527Z,53.33
2019-03-21T15:56:58.405Z,48.20
2019-03-21T15:59:28.294Z,63.70
2019-03-21T16:01:58.214Z,53.27
2019-03-21T16:04:28.081Z,56.63
2019-03-21T16:06:57.935Z,84.07
2019-03-21T16:09:27.816Z,62.03
2019-03-21T16:11:57.622Z,66.93
2019-03-21T16:14:27.519Z,48.07
2019-03-21T16:16:57.396Z,57.80
2019-03-21T16:19:27.284Z,49.27
2019-03-21T16:21:57.163Z,59.33
2019-03-21T16:24:27.039Z,68.33
2019-03-21T16:26:58.433Z,55.47
2019-03-21T16:29:28.800Z,53.97
2019-03-21T16:32:02.218Z,52.77
2019-03-21T16:34:31.006Z,64.77
2019-03-21T16:37:00.942Z,64.87
2019-03-21T16:39:30.791Z,44.43
2019-03-21T16:42:00.608Z,55.77
2019-03-21T16:44:30.459Z,57.53
2019-03-21T16:47:00.301Z,54.30
2019-03-21T16:49:30.112Z,56.80
2019-03-21T16:51:59.967Z,56.83
2019-03-21T16:54:30.378Z,102.60
2019-03-21T16:57:00.409Z,72.23
2019-03-21T16:59:30.373Z,64.63
2019-03-21T17:02:00.259Z,88.17
2019-03-21T17:04:30.152Z,121.20
2019-03-21T17:07:00.634Z,100.47
2019-03-21T17:09:30.495Z,108.50
2019-03-21T17:12:00.372Z,117.13
2019-03-21T17:14:30.748Z,107.23
2019-03-21T17:17:00.941Z,104.27
2019-03-21T17:19:31.755Z,158.97
2019-03-21T17:22:01.886Z,180.80
2019-03-21T17:24:31.705Z,185.13
2019-03-21T17:27:01.656Z,135.00
2019-03-21T17:29:31.544Z,171.67
2019-03-21T17:32:01.402Z,171.13
2019-03-21T17:34:31.224Z,145.53
2019-03-21T17:37:01.663Z,132.00
2019-03-21T17:39:50.549Z,142.70
2019-03-21T17:42:21.114Z,184.70
2019-03-21T17:44:51.938Z,139.97
2019-03-21T17:47:25.145Z,112.53
2019-03-21T17:49:55.444Z,74.10
2019-03-21T17:52:25.388Z,71.67
2019-03-21T17:54:55.246Z,88.70
2019-03-21T17:57:33.877Z,88.83
2019-03-21T17:59:56.713Z,82.53
2019-03-21T18:02:26.644Z,119.87
2019-03-21T18:04:56.676Z,114.10
2019-03-21T18:07:26.551Z,102.37
2019-03-21T18:09:56.470Z,74.57
2019-03-21T18:12:26.350Z,93.63
2019-03-21T18:14:56.199Z,122.57
2019-03-21T18:17:26.213Z,174.87
2019-03-21T18:19:55.990Z,140.63
2019-03-21T18:22:25.893Z,104.57
2019-03-21T18:24:56.040Z,81.40
2019-03-21T18:27:25.880Z,74.80
2019-03-21T18:29:55.854Z,78.73
2019-03-21T18:32:25.826Z,67.13
2019-03-21T18:34:55.723Z,72.67
2019-03-21T18:37:25.651Z,89.10
2019-03-21T18:39:55.972Z,122.60
2019-03-21T18:42:26.385Z,109.87
2019-03-21T18:44:56.337Z,77.97
2019-03-21T18:47:26.287Z,69.57
2019-03-21T18:49:58.034Z,55.10
2019-03-21T18:52:27.840Z,63.83
2019-03-21T18:55:06.347Z,52.17
2019-03-21T18:57:29.304Z,51.73
2019-03-21T18:59:59.168Z,53.10
2019-03-21T19:02:29.042Z,59.03
2019-03-21T19:04:58.930Z,49.13
2019-03-21T19:07:28.745Z,67.63
2019-03-21T19:09:58.655Z,49.03
2019-03-21T19:12:28.497Z,47.47
2019-03-21T19:15:01.766Z,48.37
2019-03-21T19:17:31.790Z,43.10
2019-03-21T19:20:01.640Z,44.77
2019-03-21T19:22:31.507Z,45.73
2019-03-21T19:25:01.444Z,39.67
2019-03-21T19:27:31.327Z,37.97
2019-03-21T19:30:01.216Z,40.83
2019-03-21T19:32:31.409Z,41.70
2019-03-21T19:35:01.192Z,44.27
2019-03-21T19:37:31.025Z,41.07
2019-03-21T19:40:00.932Z,39.97
2019-03-21T19:42:30.791Z,43.23
2019-03-21T19:45:00.599Z,44.97
2019-03-21T19:47:30.587Z,43.37
2019-03-21T19:50:00.541Z,40.37
2019-03-21T19:52:30.378Z,38.70
2019-03-21T19:55:00.361Z,46.87
2019-03-21T19:57:30.263Z,39.63
2019-03-21T20:00:00.358Z,38.87
2019-03-21T20:02:30.350Z,40.17
2019-03-21T20:05:00.287Z,39.47
2019-03-21T20:07:30.065Z,40.87
2019-03-21T20:09:59.999Z,37.23
2019-03-21T20:12:29.828Z,45.57
2019-03-21T20:14:59.783Z,42.23
2019-03-21T20:17:29.665Z,38.67
2019-03-21T20:19:59.863Z,35.23
2019-03-21T20:22:30.148Z,33.23
2019-03-21T20:24:59.974Z,34.23
2019-03-21T20:27:29.980Z,35.13
2019-03-21T20:29:59.993Z,38.43
2019-03-21T20:32:29.879Z,42.43
2019-03-21T20:34:59.777Z,34.03
2019-03-21T20:37:30.413Z,49.43
2019-03-21T20:40:00.344Z,45.20
2019-03-21T20:42:30.457Z,45.67
2019-03-21T20:45:00.361Z,47.87
2019-03-21T20:47:30.669Z,82.73
2019-03-21T20:50:01.437Z,51.10
2019-03-21T20:52:31.412Z,48.20
2019-03-21T20:55:01.238Z,40.00
2019-03-21T20:57:31.078Z,59.00
2019-03-21T21:00:00.954Z,52.90
2019-03-21T21:02:31.218Z,54.97
2019-03-21T21:05:01.076Z,44.00
2019-03-21T21:07:30.969Z,45.30
2019-03-21T21:10:01.488Z,45.83
2019-03-21T21:12:31.221Z,41.47
2019-03-21T21:15:01.112Z,41.83
2019-03-21T21:17:31.039Z,46.33
2019-03-21T21:20:00.933Z,32.90
2019-03-21T21:22:31.186Z,45.00
2019-03-21T21:25:01.059Z,48.77
2019-03-21T21:27:30.993Z,41.53
2019-03-21T21:30:00.751Z,48.40
2019-03-21T21:32:30.943Z,43.23
2019-03-21T21:35:00.772Z,43.23
2019-03-21T21:37:30.710Z,36.10
2019-03-21T21:40:00.624Z,38.27
2019-03-21T21:42:30.502Z,37.83
2019-03-21T21:45:00.326Z,44.80
2019-03-21T21:47:30.166Z,45.10
2019-03-21T21:50:00.346Z,43.63
2019-03-21T21:52:41.378Z,47.23
2019-03-21T21:55:01.658Z,47.07
2019-03-21T21:57:31.506Z,37.57
2019-03-21T22:00:01.584Z,49.63
2019-03-21T22:02:31.438Z,42.67
2019-03-21T22:05:01.302Z,51.60
2019-03-21T22:07:31.236Z,69.30
2019-03-21T22:10:01.078Z,54.13
2019-03-21T22:12:30.958Z,40.17
2019-03-21T22:15:00.815Z,44.97
2019-03-21T22:17:30.712Z,48.60
2019-03-21T22:20:00.579Z,72.20
2019-03-21T22:22:30.419Z,55.70
2019-03-21T22:25:00.887Z,52.80
2019-03-21T22:27:30.930Z,40.93
2019-03-21T22:30:00.740Z,52.47
2019-03-21T22:32:30.605Z,42.83
2019-03-21T22:35:00.474Z,46.17
2019-03-21T22:37:30.410Z,46.60
2019-03-21T22:40:00.451Z,51.43
2019-03-21T22:42:30.637Z,46.00
2019-03-21T22:45:00.425Z,58.67
2019-03-21T22:47:30.126Z,49.17
2019-03-21T22:49:59.947Z,39.83
2019-03-21T22:52:29.740Z,48.87
2019-03-21T22:54:59.599Z,41.27
2019-03-21T22:57:29.410Z,40.73
2019-03-21T22:59:59.184Z,41.00
2019-03-21T23:02:29.041Z,41.50
2019-03-21T23:04:58.846Z,37.83
2019-03-21T23:07:28.607Z,39.23
2019-03-21T23:09:58.463Z,42.97
2019-03-21T23:12:28.248Z,44.47
2019-03-21T23:14:58.022Z,47.47
2019-03-21T23:17:27.799Z,42.27
2019-03-21T23:19:57.696Z,44.63
2019-03-21T23:22:27.559Z,46.73
2019-03-21T23:24:57.419Z,37.93
2019-03-21T23:27:27.456Z,39.40
2019-03-21T23:29:57.222Z,44.80
2019-03-21T23:32:27.002Z,42.33
2019-03-21T23:34:56.795Z,39.00
2019-03-21T23:37:26.590Z,55.97
2019-03-21T23:39:56.366Z,36.50
2019-03-21T23:42:26.216Z,38.60
2019-03-21T23:44:56.074Z,42.07
2019-03-21T23:47:25.849Z,47.10
2019-03-21T23:49:55.699Z,42.20
2019-03-21T23:52:25.876Z,41.47
2019-03-21T23:54:55.773Z,45.23
2019-03-21T23:57:25.562Z,48.73
2019-03-21T23:59:55.418Z,51.40
